Time;durP1;ratioP1;P1;durP2;ratioP2;P2;SDS_P1;SDS_P2;PMS_P1;PMS_P2;Temp;Humidity;BMP_temperature;BMP_pressure;BME280_temperature;BME280_humidity;BME280_pressure;Samples;Min_cycle;Max_cycle;Signal;HPM_P1;HPM_P2
2022/03/28 00:01:32;;;;;;;8.00;5.72;;;;;;;21.21;35.26;102918.47;5010385;28;20048;-74
2022/03/28 00:03:58;;;;;;;9.63;6.03;;;;;;;21.13;35.36;102912.03;4974686;28;20041;-73
2022/03/28 00:06:23;;;;;;;10.35;6.30;;;;;;;21.16;35.15;102912.72;5012322;28;20021;-73
2022/03/28 00:08:50;;;;;;;9.48;6.28;;;;;;;21.16;35.14;102921.50;4988051;28;20595;-74
2022/03/28 00:11:16;;;;;;;10.73;6.68;;;;;;;21.18;35.19;102908.97;5003762;28;20691;-74
2022/03/28 00:13:42;;;;;;;10.35;6.60;;;;;;;21.18;35.25;102913.44;4993023;28;20616;-74
2022/03/28 00:16:08;;;;;;;9.77;6.68;;;;;;;21.15;35.10;102916.34;4999870;28;20041;-73
2022/03/28 00:18:34;;;;;;;10.48;7.35;;;;;;;21.16;35.18;102904.78;4998322;28;20128;-74
2022/03/28 00:21:00;;;;;;;10.65;6.93;;;;;;;21.16;35.24;102904.78;4985003;28;20534;-73
2022/03/28 00:23:25;;;;;;;9.93;6.93;;;;;;;21.18;35.05;102905.47;5008009;28;20033;-72
2022/03/28 00:25:51;;;;;;;10.13;6.93;;;;;;;21.11;35.30;102903.41;4985511;28;20048;-72
2022/03/28 00:28:18;;;;;;;10.73;7.32;;;;;;;21.00;35.19;102876.19;5014444;28;20065;-73
2022/03/28 00:30:44;;;;;;;11.45;7.43;;;;;;;21.12;35.31;102898.94;4995519;28;20487;-73
2022/03/28 00:33:10;;;;;;;11.45;8.07;;;;;;;21.08;35.36;102886.94;5009433;28;20049;-73
2022/03/28 00:35:36;;;;;;;10.88;7.53;;;;;;;21.10;35.23;102883.19;4973551;28;20567;-73
2022/03/28 00:38:03;;;;;;;12.15;8.10;;;;;;;21.04;35.54;102873.16;5008715;28;20052;-73
2022/03/28 00:40:31;;;;;;;12.48;7.72;;;;;;;21.08;35.17;102879.00;5007143;28;20037;-73
2022/03/28 00:43:03;;;;;;;11.85;8.13;;;;;;;21.09;35.38;102878.84;4990897;28;20080;-73
2022/03/28 00:45:31;;;;;;;12.50;7.85;;;;;;;21.04;35.47;102874.97;5007946;28;20068;-74
2022/03/28 00:47:57;;;;;;;12.60;8.85;;;;;;;21.01;35.39;102860.19;4970786;28;20069;-73
2022/03/28 00:50:23;;;;;;;12.50;8.57;;;;;;;21.03;35.30;102857.41;5008028;28;20080;-73
2022/03/28 00:52:50;;;;;;;12.80;8.90;;;;;;;21.00;35.47;102858.47;4969883;28;20126;-73
2022/03/28 00:55:15;;;;;;;13.13;8.30;;;;;;;21.00;35.36;102862.94;5012094;28;20038;-73
2022/03/28 00:57:42;;;;;;;13.07;9.15;;;;;;;21.02;35.51;102877.75;4997959;28;20088;-74
2022/03/28 01:00:09;;;;;;;12.65;8.75;;;;;;;21.02;35.50;102861.84;4997276;28;20084;-73
2022/03/28 01:02:35;;;;;;;13.30;8.70;;;;;;;21.00;35.38;102858.47;4998528;28;20041;-73
2022/03/28 01:05:01;;;;;;;12.18;8.57;;;;;;;21.01;35.44;102852.25;4990739;28;20041;-73
2022/03/28 01:07:27;;;;;;;14.80;10.30;;;;;;;21.00;35.41;102847.06;5010719;28;20037;-73
2022/03/28 01:09:55;;;;;;;12.10;8.48;;;;;;;20.96;35.50;102843.84;4969891;28;20925;-73
2022/03/28 01:12:23;;;;;;;13.35;9.30;;;;;;;20.96;35.49;102837.72;5006461;28;20475;-74
2022/03/28 01:14:50;;;;;;;13.35;9.35;;;;;;;20.97;35.56;102844.69;4982614;28;20030;-73
2022/03/28 01:19:59;;;;;;;14.50;9.43;;;;;;;20.95;35.71;102834.22;4987371;28;22105;-73
2022/03/28 01:22:25;;;;;;;13.88;9.35;;;;;;;20.89;35.83;102826.00;5013664;28;20034;-73
2022/03/28 01:24:50;;;;;;;12.73;9.02;;;;;;;20.90;35.73;102828.53;4977819;28;20397;-73
2022/03/28 01:27:16;;;;;;;14.85;9.07;;;;;;;20.93;35.49;102828.25;5033314;28;20045;-73
2022/03/28 01:29:44;;;;;;;13.82;9.25;;;;;;;20.88;35.60;102811.09;4999075;28;20061;-74
2022/03/28 01:32:11;;;;;;;13.13;8.90;;;;;;;20.95;35.54;102817.50;5016696;28;20044;-73
2022/03/28 01:34:37;;;;;;;13.93;9.05;;;;;;;20.94;35.48;102821.97;5002487;28;20041;-74
2022/03/28 01:37:03;;;;;;;13.30;9.18;;;;;;;20.94;35.51;102819.31;4999551;28;20041;-73
2022/03/28 01:39:30;;;;;;;11.30;7.72;;;;;;;20.75;35.66;102795.47;5013654;28;20037;-74
2022/03/28 01:41:56;;;;;;;11.77;8.18;;;;;;;20.89;35.57;102816.25;4979733;28;20029;-73
2022/03/28 01:44:22;;;;;;;11.18;8.32;;;;;;;20.88;35.55;102819.03;5013856;28;20045;-73
2022/03/28 01:46:48;;;;;;;12.82;7.75;;;;;;;20.88;35.67;102825.19;4986158;28;20041;-72
2022/03/28 01:49:15;;;;;;;11.68;8.02;;;;;;;20.84;35.63;102821.13;5014071;28;20064;-73
2022/03/28 01:51:40;;;;;;;10.63;7.65;;;;;;;20.86;35.75;102819.19;4983494;28;20408;-73
2022/03/28 01:54:07;;;;;;;11.02;7.38;;;;;;;20.85;35.70;102817.50;5012627;28;20037;-74
2022/03/28 01:56:36;;;;;;;11.65;8.25;;;;;;;20.86;35.74;102819.19;4989653;28;20046;-74
2022/03/28 01:59:03;;;;;;;10.82;7.30;;;;;;;20.83;35.44;102814.16;5004893;28;20037;-73
2022/03/28 02:01:29;;;;;;;11.65;7.65;;;;;;;20.84;35.71;102809.72;5012512;28;20119;-74
2022/03/28 02:03:55;;;;;;;9.65;7.13;;;;;;;20.86;35.62;102810.41;4982330;28;20046;-73
2022/03/28 02:06:20;;;;;;;9.45;6.85;;;;;;;20.83;35.63;102810.69;5007862;28;20041;-73
2022/03/28 02:08:46;;;;;;;8.85;7.05;;;;;;;20.79;35.84;102812.75;4988752;28;20395;-73
2022/03/28 02:11:12;;;;;;;9.88;7.18;;;;;;;20.81;35.56;102808.16;5008072;28;20057;-73
2022/03/28 02:13:37;;;;;;;10.18;6.65;;;;;;;20.83;35.75;102802.75;4966435;28;20283;-73
2022/03/28 02:16:03;;;;;;;9.50;6.63;;;;;;;20.73;35.73;102787.69;5010051;28;20135;-73
2022/03/28 02:18:29;;;;;;;9.27;6.65;;;;;;;20.79;35.83;102800.34;5004579;28;20480;-74
2022/03/28 02:20:54;;;;;;;10.13;6.65;;;;;;;20.81;35.76;102797.56;4987948;28;20045;-73
2022/03/28 02:23:21;;;;;;;9.48;6.40;;;;;;;20.81;35.54;102793.09;5008911;28;20045;-74
2022/03/28 02:25:47;;;;;;;9.20;6.53;;;;;;;20.78;35.77;102789.91;4986558;28;20037;-73
2022/03/28 02:28:12;;;;;;;8.00;6.00;;;;;;;20.74;35.62;102781.41;5010654;28;20049;-73
2022/03/28 02:30:38;;;;;;;7.72;6.00;;;;;;;20.79;35.59;102781.81;4972977;28;20048;-73
2022/03/28 02:33:04;;;;;;;9.50;6.40;;;;;;;20.78;35.78;102781.97;5011419;28;20048;-74
2022/03/28 02:35:30;;;;;;;8.05;5.47;;;;;;;20.73;35.73;102773.59;4985322;28;20132;-74
2022/03/28 02:38:01;;;;;;;7.97;5.82;;;;;;;20.73;35.81;102771.78;5009092;28;20329;-73
2022/03/28 02:40:28;;;;;;;7.95;5.53;;;;;;;20.72;35.77;102762.19;4985414;28;20577;-73
2022/03/28 02:42:57;;;;;;;7.82;5.88;;;;;;;20.75;35.84;102764.53;5006705;28;20159;-73
2022/03/28 02:45:23;;;;;;;6.90;5.15;;;;;;;20.70;35.81;102753.53;4979074;28;20583;-73
2022/03/28 02:47:49;;;;;;;7.55;5.78;;;;;;;20.72;35.75;102756.03;5003346;28;20531;-73
2022/03/28 02:50:14;;;;;;;7.47;5.70;;;;;;;20.64;35.68;102740.00;5010688;28;20049;-73
2022/03/28 02:52:40;;;;;;;6.75;5.55;;;;;;;20.74;35.70;102748.81;4982768;28;20042;-73
2022/03/28 02:55:06;;;;;;;9.70;5.50;;;;;;;20.71;35.77;102752.56;5010837;28;20045;-73
2022/03/28 02:57:32;;;;;;;6.63;5.22;;;;;;;20.73;35.81;102749.78;4991902;28;20400;-74
2022/03/28 02:59:57;;;;;;;6.97;5.28;;;;;;;20.68;35.85;102742.25;5012700;28;20272;-74
2022/03/28 03:02:23;;;;;;;6.88;5.20;;;;;;;20.68;35.90;102734.31;4977547;28;20038;-73
2022/03/28 03:04:49;;;;;;;7.80;5.85;;;;;;;20.69;35.92;102737.78;5012085;28;20056;-73
2022/03/28 03:07:14;;;;;;;8.45;6.10;;;;;;;20.67;35.86;102730.00;5009000;28;20033;-73
2022/03/28 03:09:40;;;;;;;6.75;5.35;;;;;;;20.69;35.82;102736.00;4985651;28;20046;-73
2022/03/28 03:12:06;;;;;;;8.65;5.55;;;;;;;20.66;35.76;102735.44;5010819;28;20672;-73
2022/03/28 03:14:31;;;;;;;7.10;5.65;;;;;;;20.69;35.85;102736.00;4980383;28;20107;-73
2022/03/28 03:16:57;;;;;;;7.25;5.45;;;;;;;20.64;35.83;102732.91;5008663;28;20579;-73
2022/03/28 03:19:22;;;;;;;7.60;5.40;;;;;;;20.62;35.89;102728.72;4972940;28;20041;-73
2022/03/28 03:21:48;;;;;;;7.03;5.47;;;;;;;20.63;35.76;102730.38;5009422;28;20033;-73
2022/03/28 03:24:14;;;;;;;7.32;5.47;;;;;;;20.65;35.80;102737.25;4982554;28;20403;-73
2022/03/28 03:26:39;;;;;;;7.93;5.50;;;;;;;20.64;35.79;102721.47;5014059;28;20072;-74
2022/03/28 03:29:05;;;;;;;6.60;5.10;;;;;;;20.61;35.83;102714.66;4986201;28;20290;-73
2022/03/28 03:31:31;;;;;;;7.22;5.40;;;;;;;20.51;35.78;102698.78;5012216;28;20038;-73
2022/03/28 03:33:56;;;;;;;6.43;5.40;;;;;;;20.61;35.87;102714.66;4983214;28;20672;-73
2022/03/28 03:36:22;;;;;;;6.60;5.13;;;;;;;20.56;35.98;102722.19;5000221;28;20045;-73
2022/03/28 03:38:47;;;;;;;8.00;6.10;;;;;;;20.59;35.97;102713.13;5010170;28;20709;-73
2022/03/28 03:41:13;;;;;;;6.80;4.80;;;;;;;20.58;35.90;102716.75;4983968;28;20041;-73
2022/03/28 03:43:38;;;;;;;6.72;5.00;;;;;;;20.54;36.10;102704.78;5008016;28;20045;-73
2022/03/28 03:46:04;;;;;;;6.72;5.25;;;;;;;20.48;36.08;102695.59;4985729;28;20061;-73
2022/03/28 03:48:30;;;;;;;7.47;5.20;;;;;;;20.54;36.13;102702.13;5008274;28;20049;-73
2022/03/28 03:50:55;;;;;;;6.93;5.18;;;;;;;20.56;35.94;102703.66;4970298;28;21006;-73
2022/03/28 03:53:21;;;;;;;7.82;4.93;;;;;;;20.56;36.08;102708.94;5010803;28;20522;-72
2022/03/28 03:55:47;;;;;;;6.00;4.88;;;;;;;20.53;35.93;102703.94;4989403;28;20095;-73
2022/03/28 03:58:14;;;;;;;7.22;5.13;;;;;;;20.52;36.02;102703.09;5012368;28;20045;-73
2022/03/28 04:00:40;;;;;;;6.38;5.00;;;;;;;20.54;35.88;102699.47;4987772;28;20592;-74
2022/03/28 04:03:08;;;;;;;7.15;5.32;;;;;;;20.53;35.94;102698.66;5008936;28;20042;-73
2022/03/28 04:05:37;;;;;;;6.18;4.88;;;;;;;20.53;35.94;102696.00;5001562;28;20124;-74
2022/03/28 04:08:05;;;;;;;7.60;5.10;;;;;;;20.53;36.04;102690.72;4979709;28;20041;-74
2022/03/28 04:10:31;;;;;;;7.00;5.00;;;;;;;20.50;35.85;102691.00;5008191;28;20056;-73
2022/03/28 04:12:57;;;;;;;6.95;4.53;;;;;;;20.49;36.00;102689.31;4995680;28;20045;-73
2022/03/28 04:15:23;;;;;;;6.43;4.90;;;;;;;20.52;35.91;102691.69;5010633;28;20049;-73
2022/03/28 04:17:48;;;;;;;6.30;5.03;;;;;;;20.47;35.97;102691.28;4986260;28;20065;-73
2022/03/28 04:20:15;;;;;;;6.15;5.03;;;;;;;20.45;36.04;102694.03;5007178;28;20041;-73
2022/03/28 04:22:43;;;;;;;7.07;4.43;;;;;;;20.45;36.05;102686.09;4972244;28;20033;-73
2022/03/28 04:25:10;;;;;;;7.60;4.80;;;;;;;20.47;36.10;102688.63;5012693;28;20629;-73
2022/03/28 04:27:36;;;;;;;6.10;4.60;;;;;;;20.46;36.02;102693.06;5009562;28;20052;-74
2022/03/28 04:30:07;;;;;;;5.53;4.53;;;;;;;20.46;35.98;102687.75;4993228;28;20044;-73
2022/03/28 04:32:33;;;;;;;4.90;4.18;;;;;;;20.31;36.14;102661.84;5002239;28;20025;-73
2022/03/28 04:34:59;;;;;;;6.03;4.78;;;;;;;20.43;35.98;102680.09;4988116;28;20129;-73
2022/03/28 04:37:24;;;;;;;6.03;4.57;;;;;;;20.45;35.99;102686.09;5010279;28;20030;-73
2022/03/28 04:39:50;;;;;;;5.32;4.15;;;;;;;20.46;35.86;102671.88;4970081;28;20040;-73
2022/03/28 04:42:15;;;;;;;5.07;4.35;;;;;;;20.43;35.99;102681.91;5006852;28;20125;-73
2022/03/28 04:44:41;;;;;;;6.78;4.40;;;;;;;20.42;36.07;102682.91;4990181;28;20045;-73
2022/03/28 04:47:07;;;;;;;6.07;4.63;;;;;;;20.42;35.94;102678.44;5013156;28;20037;-73
2022/03/28 04:49:33;;;;;;;5.53;4.07;;;;;;;20.41;36.00;102674.13;4985971;28;20069;-73
2022/03/28 04:51:58;;;;;;;4.40;3.50;;;;;;;20.39;36.13;102676.03;5009173;28;20037;-73
2022/03/28 04:54:24;;;;;;;5.57;4.18;;;;;;;20.38;36.10;102689.41;4981170;28;20109;-73
2022/03/28 04:56:50;;;;;;;6.10;4.28;;;;;;;20.42;36.00;102672.31;5003531;28;20442;-73
2022/03/28 04:59:16;;;;;;;4.40;3.78;;;;;;;20.39;36.06;102672.56;5009809;28;20045;-73
2022/03/28 05:01:41;;;;;;;5.28;4.00;;;;;;;20.35;36.12;102666.72;4987370;28;20041;-73
2022/03/28 05:04:07;;;;;;;5.18;3.80;;;;;;;20.38;36.14;102661.13;5012481;28;20060;-73
2022/03/28 05:06:32;;;;;;;5.78;3.75;;;;;;;20.38;36.15;102668.25;4987543;28;20349;-73
2022/03/28 05:08:58;;;;;;;4.68;3.58;;;;;;;20.33;35.95;102644.84;5008666;28;20037;-73
2022/03/28 05:11:23;;;;;;;4.80;3.78;;;;;;;20.38;36.17;102644.44;4973092;28;20064;-73
2022/03/28 05:13:50;;;;;;;4.88;3.67;;;;;;;20.48;35.91;102648.78;5015574;28;20079;-73
2022/03/28 05:16:16;;;;;;;4.90;3.50;;;;;;;20.65;35.71;102649.88;5014247;28;20045;-73
2022/03/28 05:18:42;;;;;;;4.47;3.53;;;;;;;20.95;35.18;102640.91;4990518;28;20041;-73
2022/03/28 05:21:07;;;;;;;4.55;3.35;;;;;;;21.42;34.73;102636.44;5009416;28;20076;-73
2022/03/28 05:23:33;;;;;;;4.13;3.22;;;;;;;21.95;33.80;102633.06;4990270;28;20515;-73
2022/03/28 05:25:58;;;;;;;4.10;3.17;;;;;;;22.42;33.20;102635.50;5015952;28;20041;-73
2022/03/28 05:28:24;;;;;;;4.35;3.20;;;;;;;22.59;32.90;102629.34;4979586;28;20045;-73
2022/03/28 05:30:51;;;;;;;4.22;3.20;;;;;;;22.64;33.17;102636.88;5016287;28;20047;-73
2022/03/28 05:33:17;;;;;;;4.07;3.00;;;;;;;22.49;33.08;102635.75;4990410;28;20839;-73
2022/03/28 05:35:44;;;;;;;3.85;2.97;;;;;;;22.31;33.67;102630.47;5013949;28;20622;-73
2022/03/28 05:38:10;;;;;;;3.45;2.85;;;;;;;22.22;33.55;102634.84;4987789;28;20045;-73
2022/03/28 05:40:36;;;;;;;2.88;2.67;;;;;;;22.01;33.97;102628.97;5011516;28;20042;-73
2022/03/28 05:43:02;;;;;;;3.72;3.00;;;;;;;21.98;34.16;102634.59;4988377;28;21040;-73
2022/03/28 05:45:28;;;;;;;3.42;2.80;;;;;;;21.89;34.32;102630.16;5001420;28;20396;-73
2022/03/28 05:47:54;;;;;;;3.95;2.90;;;;;;;21.82;34.62;102626.47;5012172;28;20045;-73
2022/03/28 05:50:19;;;;;;;3.72;2.80;;;;;;;21.77;34.58;102629.56;4989189;28;20041;-73
2022/03/28 05:52:45;;;;;;;3.13;2.63;;;;;;;22.01;34.57;102621.03;5011903;28;20225;-73
2022/03/28 05:55:11;;;;;;;3.67;2.70;;;;;;;22.43;33.59;102615.09;4980475;28;20235;-73
2022/03/28 05:57:37;;;;;;;3.08;2.40;;;;;;;22.82;32.82;102619.09;5008667;28;20046;-73
2022/03/28 06:00:05;;;;;;;4.20;2.80;;;;;;;22.79;33.02;102623.84;4972904;28;20618;-73
2022/03/28 06:02:38;;;;;;;3.03;2.55;;;;;;;22.71;33.49;102619.31;5016039;28;20033;-73
2022/03/28 06:05:05;;;;;;;4.60;2.97;;;;;;;22.57;33.71;102627.84;4984063;28;20470;-73
2022/03/28 06:07:31;;;;;;;4.43;2.85;;;;;;;22.43;33.87;102626.56;5010503;28;20069;-73
2022/03/28 06:09:57;;;;;;;3.30;2.40;;;;;;;22.24;33.92;102619.59;4988549;28;20045;-73
2022/03/28 06:12:23;;;;;;;3.38;2.58;;;;;;;22.16;34.30;102627.50;5008241;28;20048;-73
2022/03/28 06:14:49;;;;;;;3.80;2.58;;;;;;;22.09;34.40;102629.09;4988543;28;21068;-73
2022/03/28 06:17:22;;;;;;;3.72;2.85;;;;;;;22.00;34.37;102614.03;4997642;28;20479;-73
2022/03/28 06:19:47;;;;;;;4.90;2.92;;;;;;;21.92;34.68;102617.47;5009136;28;20061;-73
2022/03/28 06:22:13;;;;;;;4.00;2.97;;;;;;;21.90;34.63;102621.22;4990448;28;20155;-72
2022/03/28 06:24:38;;;;;;;3.72;2.95;;;;;;;21.89;34.54;102617.75;5007535;28;20045;-73
2022/03/28 06:27:04;;;;;;;4.63;2.85;;;;;;;21.95;34.62;102618.97;4990544;28;20041;-73
2022/03/28 06:29:30;;;;;;;4.65;3.00;;;;;;;22.18;34.15;102619.38;5018795;28;20701;-73
2022/03/28 06:31:55;;;;;;;4.30;3.15;;;;;;;22.23;34.37;102623.25;4984066;28;20037;-73
2022/03/28 06:34:21;;;;;;;4.90;3.42;;;;;;;22.24;33.93;102622.25;5006959;28;20718;-73
2022/03/28 06:36:47;;;;;;;4.88;3.25;;;;;;;22.16;34.30;102616.06;4991849;28;20107;-73
2022/03/28 06:39:14;;;;;;;5.57;3.50;;;;;;;22.03;34.48;102619.03;5008749;28;20117;-73
2022/03/28 06:41:40;;;;;;;4.63;2.97;;;;;;;21.98;34.20;102618.66;4995100;28;20037;-74
2022/03/28 06:44:08;;;;;;;4.63;3.40;;;;;;;21.98;34.58;102619.50;4999520;28;20072;-73
2022/03/28 06:46:36;;;;;;;5.05;3.38;;;;;;;21.92;34.46;102606.03;5008436;28;20124;-73
2022/03/28 06:49:02;;;;;;;4.18;3.08;;;;;;;21.87;34.67;102616.22;4989708;28;20048;-74
2022/03/28 06:51:27;;;;;;;4.88;3.63;;;;;;;21.86;34.62;102612.75;5010263;28;20038;-74
2022/03/28 06:53:53;;;;;;;4.22;3.00;;;;;;;21.81;34.70;102604.41;4978248;28;20034;-74
2022/03/28 06:56:20;;;;;;;4.10;3.25;;;;;;;21.82;34.55;102614.03;5008518;28;20041;-73
2022/03/28 06:58:45;;;;;;;4.30;3.30;;;;;;;21.79;34.76;102605.56;4988760;28;20657;-73
2022/03/28 07:01:11;;;;;;;4.80;3.00;;;;;;;21.79;34.68;102600.25;5015733;28;20037;-74
2022/03/28 07:03:37;;;;;;;4.82;3.60;;;;;;;21.77;34.76;102599.56;4984856;28;20045;-73
2022/03/28 07:06:03;;;;;;;4.05;3.25;;;;;;;21.60;34.62;102570.22;4999277;28;20037;-74
2022/03/28 07:08:29;;;;;;;4.65;3.55;;;;;;;21.89;34.40;102607.13;5014087;28;20804;-74
2022/03/28 07:10:55;;;;;;;4.50;3.53;;;;;;;21.93;34.57;102602.38;4983447;28;20037;-73
2022/03/28 07:13:22;;;;;;;3.97;2.90;;;;;;;21.79;34.60;102571.06;5012208;28;20045;-74
2022/03/28 07:15:48;;;;;;;4.82;3.15;;;;;;;21.88;34.48;102589.56;4982222;28;20049;-73
2022/03/28 07:18:13;;;;;;;4.07;3.15;;;;;;;21.86;34.60;102588.88;5009470;28;20041;-74
2022/03/28 07:20:40;;;;;;;3.88;3.00;;;;;;;21.82;34.59;102581.38;4985608;28;20119;-74
2022/03/28 07:23:06;;;;;;;4.60;3.03;;;;;;;21.76;34.80;102574.88;5002388;28;20037;-73
2022/03/28 07:25:32;;;;;;;4.57;2.88;;;;;;;21.81;34.70;102582.34;5005865;28;20044;-73
2022/03/28 07:27:58;;;;;;;3.65;2.78;;;;;;;21.75;34.77;102575.03;4988537;28;20061;-73
2022/03/28 07:30:25;;;;;;;5.05;2.75;;;;;;;21.77;34.61;102567.75;5011151;28;20164;-74
2022/03/28 07:32:52;;;;;;;4.05;2.80;;;;;;;21.75;34.63;102567.91;4990085;28;20902;-73
2022/03/28 07:35:19;;;;;;;4.53;2.65;;;;;;;21.69;34.76;102557.88;5014283;28;20765;-74
2022/03/28 07:37:45;;;;;;;5.28;2.83;;;;;;;21.70;34.75;102557.72;4974640;28;20041;-73
2022/03/28 07:40:12;;;;;;;3.83;3.13;;;;;;;21.75;34.73;102556.47;5011930;28;20741;-73
2022/03/28 07:42:40;;;;;;;3.55;2.47;;;;;;;21.57;34.71;102538.72;4999050;28;20041;-74
2022/03/28 07:45:08;;;;;;;3.93;2.87;;;;;;;21.76;34.72;102558.13;4985652;28;20080;-74
2022/03/28 07:47:34;;;;;;;5.10;2.85;;;;;;;21.93;34.35;102565.25;5008042;28;20033;-74
2022/03/28 07:50:02;;;;;;;4.10;2.88;;;;;;;22.12;34.51;102559.81;4991839;28;20029;-74
2022/03/28 07:52:28;;;;;;;3.08;2.55;;;;;;;22.30;33.95;102551.81;5011489;28;20495;-74
2022/03/28 07:54:54;;;;;;;3.30;2.42;;;;;;;22.23;33.88;102548.09;4962661;28;20425;-73
2022/03/28 07:57:20;;;;;;;4.40;2.80;;;;;;;22.25;34.12;102562.06;5012220;28;20136;-72
2022/03/28 07:59:47;;;;;;;3.47;2.72;;;;;;;22.24;34.15;102561.22;4980076;28;20511;-73
2022/03/28 08:02:14;;;;;;;3.30;2.38;;;;;;;22.18;33.98;102551.22;5012575;28;20552;-74
2022/03/28 08:04:40;;;;;;;3.83;2.63;;;;;;;22.16;34.21;102550.56;4977101;28;20041;-73
2022/03/28 08:07:08;;;;;;;3.28;2.30;;;;;;;22.18;34.04;102545.09;5007303;28;20041;-73
2022/03/28 08:09:38;;;;;;;3.08;2.42;;;;;;;22.20;34.19;102537.81;4963320;28;20443;-72
2022/03/28 08:12:04;;;;;;;;;;;;;;;22.21;34.00;102532.34;5014813;28;20110;-72
2022/03/28 08:14:30;;;;;;;3.83;2.67;;;;;;;22.09;34.18;102516.84;5010744;28;19924;-73
2022/03/28 08:16:56;;;;;;;3.20;2.40;;;;;;;22.15;34.12;102532.97;4986728;28;20033;-75
2022/03/28 08:19:23;;;;;;;3.22;2.28;;;;;;;22.06;34.14;102511.81;5011072;28;20411;-74
2022/03/28 08:21:49;;;;;;;3.90;2.63;;;;;;;22.11;34.19;102530.78;4989641;28;20121;-74
2022/03/28 08:24:14;;;;;;;3.42;2.20;;;;;;;22.22;33.96;102541.13;5005559;28;20064;-72
2022/03/28 08:26:40;;;;;;;3.15;2.50;;;;;;;22.34;33.46;102544.38;4973950;28;21879;-73
2022/03/28 08:29:07;;;;;;;2.97;2.35;;;;;;;22.59;33.23;102541.72;5009567;28;20586;-74
2022/03/28 08:31:32;;;;;;;4.05;2.53;;;;;;;22.75;33.19;102545.47;5008035;28;20156;-74
2022/03/28 08:33:59;;;;;;;4.40;2.67;;;;;;;22.71;32.94;102546.78;4999367;28;20126;-74
2022/03/28 08:36:24;;;;;;;4.10;2.60;;;;;;;22.66;33.25;102544.59;5011619;28;20048;-74
2022/03/28 08:38:50;;;;;;;2.88;2.30;;;;;;;22.57;33.37;102554.31;4983158;28;20431;-77
2022/03/28 08:41:18;;;;;;;3.72;2.40;;;;;;;22.54;33.26;102559.13;5019064;28;20404;-74
2022/03/28 08:43:45;;;;;;;2.60;2.15;;;;;;;22.47;33.56;102558.09;4976581;28;20050;-74
2022/03/28 08:46:12;;;;;;;2.67;2.28;;;;;;;22.33;33.48;102546.22;5016559;28;20508;-75
2022/03/28 08:48:41;;;;;;;3.35;2.40;;;;;;;22.37;33.79;102560.81;4996077;28;20073;-74
2022/03/28 08:51:11;;;;;;;5.70;2.67;;;;;;;22.27;33.88;102555.63;5017568;28;20079;-74
2022/03/28 08:53:37;;;;;;;4.82;2.38;;;;;;;22.19;33.74;102531.66;4985710;28;20508;-73
2022/03/28 08:56:04;;;;;;;3.85;2.40;;;;;;;22.22;33.96;102546.44;5011107;28;20041;-73
2022/03/28 08:58:30;;;;;;;2.75;2.13;;;;;;;22.17;33.91;102536.28;4964478;28;20601;-73
2022/03/28 09:00:56;;;;;;;2.78;2.22;;;;;;;22.19;34.39;102533.50;5017213;28;20041;-75
2022/03/28 09:03:38;;;;;;;2.63;2.03;;;;;;;22.22;34.09;102541.13;5013477;28;20369;-75
2022/03/28 09:06:32;;;;;;;3.25;2.20;;;;;;;22.29;34.01;102529.75;4992739;28;20049;-75
2022/03/28 09:09:19;;;;;;;2.92;2.17;;;;;;;22.38;33.65;102532.47;4980560;28;20034;-75
2022/03/28 09:11:48;;;;;;;3.28;2.33;;;;;;;22.38;33.75;102530.63;5016463;28;20212;-76
2022/03/28 09:14:24;;;;;;;5.82;2.70;;;;;;;22.48;34.00;102520.75;4955939;28;20148;-71
2022/03/28 09:17:08;;;;;;;3.67;2.15;;;;;;;22.75;33.71;102525.06;5019625;28;20057;-71
2022/03/28 09:20:04;;;;;;;2.70;2.13;;;;;;;22.69;33.86;102524.88;5003662;28;20154;-70
2022/03/28 09:22:36;;;;;;;3.28;2.40;;;;;;;22.81;33.82;102521.78;5011808;28;20045;-73
2022/03/28 09:25:10;;;;;;;5.72;2.50;;;;;;;22.85;33.78;102519.66;4992141;28;20068;-73
2022/03/28 09:27:39;;;;;;;2.78;2.25;;;;;;;22.88;33.66;102506.06;5021359;28;20136;-73
2022/03/28 09:30:11;;;;;;;3.08;2.30;;;;;;;22.92;34.06;102510.88;4966628;28;20269;-75
2022/03/28 09:32:38;;;;;;;3.22;2.30;;;;;;;;;;5007372;28;20478;-73
2022/03/28 09:35:19;;;;;;;2.70;2.10;;;;;;;22.76;34.34;102517.91;5020145;28;20519;-74
2022/03/28 09:38:04;;;;;;;3.08;2.55;;;;;;;22.86;33.81;102505.41;4972184;28;20121;-70
2022/03/28 09:40:40;;;;;;;2.58;2.20;;;;;;;22.97;33.80;102506.91;4994982;28;20037;-73
2022/03/28 09:43:24;;;;;;;3.58;2.42;;;;;;;22.91;33.77;102506.56;5003422;28;20426;-73
2022/03/28 09:45:56;;;;;;;3.00;2.20;;;;;;;22.89;34.08;102497.94;4963051;28;20138;-74
2022/03/28 09:48:24;;;;;;;3.85;2.65;;;;;;;22.61;34.26;102493.78;4993578;28;20116;-76
2022/03/28 09:50:59;;;;;;;5.38;2.83;;;;;;;22.46;34.20;102501.50;5014220;28;20033;-77
2022/03/28 09:53:36;;;;;;;3.63;2.58;;;;;;;22.44;34.46;102492.88;4971906;28;20035;-73
2022/03/28 09:56:04;;;;;;;3.80;2.67;;;;;;;22.64;34.21;102488.16;5015711;28;20065;-75
2022/03/28 09:58:38;;;;;;;3.70;2.50;;;;;;;22.76;33.94;102492.19;4966946;28;20395;-74
2022/03/28 10:01:12;;;;;;;3.50;2.78;;;;;;;22.72;33.73;102492.69;5017210;28;20411;-74
2022/03/28 10:03:38;;;;;;;3.08;2.33;;;;;;;22.81;34.13;102484.59;4934094;28;20060;-75
2022/03/28 10:06:06;;;;;;;3.17;2.83;;;;;;;22.85;34.24;102478.00;5015841;28;20522;-76
2022/03/28 10:08:33;;;;;;;3.15;2.50;;;;;;;22.87;34.17;102478.66;4974234;28;20049;-74
2022/03/28 10:10:59;;;;;;;4.32;2.55;;;;;;;22.96;33.81;102478.69;5005115;28;20133;-69
2022/03/28 10:13:26;;;;;;;2.42;2.22;;;;;;;22.92;33.90;102468.38;4986062;28;20033;-71
2022/03/28 10:15:52;;;;;;;3.90;2.47;;;;;;;22.96;34.24;102468.06;5010950;28;20132;-76
2022/03/28 10:18:18;;;;;;;3.53;2.58;;;;;;;22.74;34.18;102417.16;4982408;28;20041;-72
2022/03/28 10:20:46;;;;;;;2.92;2.22;;;;;;;22.97;34.07;102462.59;4938694;28;20056;-73
2022/03/28 10:23:16;;;;;;;3.65;2.70;;;;;;;22.83;34.08;102448.13;5011804;28;20029;-75
2022/03/28 10:25:43;;;;;;;3.70;2.70;;;;;;;22.78;34.42;102437.09;4955968;28;20867;-73
2022/03/28 10:28:09;;;;;;;4.10;2.50;;;;;;;;;;5011796;28;20049;-72
2022/03/28 10:30:35;;;;;;;3.45;2.17;;;;;;;22.78;34.48;102452.19;4954474;28;20041;-72
2022/03/28 10:33:21;;;;;;;3.42;2.47;;;;;;;22.67;34.70;102442.72;5011439;28;20038;-72
2022/03/28 10:36:00;;;;;;;3.63;2.70;;;;;;;22.64;34.32;102436.88;4938723;28;20065;-71
2022/03/28 10:38:26;;;;;;;3.25;2.25;;;;;;;22.64;34.44;102435.06;5007315;28;20821;-70
2022/03/28 10:40:57;;;;;;;3.10;2.17;;;;;;;22.72;34.09;102455.50;4961486;28;20259;-72
2022/03/28 10:43:28;;;;;;;2.88;2.40;;;;;;;22.64;34.12;102442.19;5014589;28;20032;-72
2022/03/28 10:45:58;;;;;;;2.40;2.17;;;;;;;22.65;34.28;102462.44;4958652;28;20242;-72
2022/03/28 10:48:39;;;;;;;2.92;2.20;;;;;;;22.56;34.26;102451.78;5006579;28;21686;-72
2022/03/28 10:51:10;;;;;;;2.38;2.15;;;;;;;22.54;34.61;102448.44;4937823;28;20049;-71
2022/03/28 10:53:42;;;;;;;2.50;2.30;;;;;;;22.44;34.32;102431.81;4996938;28;20041;-71
2022/03/28 10:56:19;;;;;;;2.90;2.53;;;;;;;22.52;34.48;102439.81;4980324;28;22526;-72
2022/03/28 10:58:55;;;;;;;2.47;2.10;;;;;;;22.50;34.28;102439.13;4989211;28;20029;-70
2022/03/28 11:01:25;;;;;;;3.47;2.75;;;;;;;22.48;34.64;102437.63;4987630;28;20040;-72
2022/03/28 11:04:01;;;;;;;3.05;2.40;;;;;;;22.44;34.60;102445.09;4995379;28;20474;-71
2022/03/28 11:07:01;;;;;;;2.60;2.20;;;;;;;22.44;34.38;102439.78;4972199;28;20045;-72
2022/03/28 11:09:51;;;;;;;2.92;2.50;;;;;;;22.42;34.58;102435.59;4974877;28;20049;-71
2022/03/28 11:12:29;;;;;;;2.72;2.22;;;;;;;22.37;34.58;102428.13;4988369;28;20169;-73
2022/03/28 11:15:14;;;;;;;3.92;2.60;;;;;;;22.39;34.47;102428.78;4990379;28;20428;-72
2022/03/28 11:17:56;;;;;;;2.25;2.03;;;;;;;22.52;34.12;102420.41;5023716;28;20639;-73
2022/03/28 11:20:23;;;;;;;3.22;2.58;;;;;;;22.49;33.93;102415.41;5023862;28;20045;-72
2022/03/28 11:22:50;;;;;;;3.15;2.40;;;;;;;22.52;34.16;102417.75;5011408;28;20345;-72
2022/03/28 11:25:45;;;;;;;3.22;2.40;;;;;;;22.53;33.89;102403.47;5021045;28;20072;-72
2022/03/28 11:28:13;;;;;;;3.15;2.60;;;;;;;22.54;34.05;102399.81;5013937;28;20052;-72
2022/03/28 11:30:45;;;;;;;3.25;2.60;;;;;;;22.53;34.08;102392.84;5027296;28;20438;-74